Time;durP1;ratioP1;P1;durP2;ratioP2;P2;SDS_P1;SDS_P2;PMS_P1;PMS_P2;Temp;Humidity;BMP_temperature;BMP_pressure;BME280_temperature;BME280_humidity;BME280_pressure;Samples;Min_cycle;Max_cycle;Signal;HPM_P1;HPM_P2
2022/08/04 00:04:16;;;;;;;10.80;4.58;;;;;;;24.66;53.45;100806.08;5125835;57;1137062;-63
2022/08/04 00:09:39;;;;;;;6.85;4.50;;;;;;;24.69;53.45;100809.73;5122105;57;1139028;-64
2022/08/04 00:14:51;;;;;;;12.37;4.47;;;;;;;24.69;53.33;100808.91;5121965;56;1136930;-63
2022/08/04 00:20:00;;;;;;;4.20;3.90;;;;;;;24.64;53.26;100809.50;5121691;57;1138977;-65
2022/08/04 00:25:07;;;;;;;7.87;4.97;;;;;;;24.57;53.07;100811.89;5121420;57;1137245;-66
2022/08/04 00:30:12;;;;;;;5.33;4.58;;;;;;;24.57;53.22;100810.02;5077854;57;1137467;-65
2022/08/04 00:35:18;;;;;;;5.30;4.58;;;;;;;24.54;53.10;100813.96;5061423;57;1134946;-65
2022/08/04 00:40:37;;;;;;;9.13;5.10;;;;;;;24.42;52.99;100810.17;5091716;57;21178;-65
2022/08/04 00:46:14;;;;;;;11.97;5.27;;;;;;;24.35;53.17;100816.58;5038212;57;1134847;-67
2022/08/04 00:51:33;;;;;;;9.23;4.75;;;;;;;24.24;53.30;100811.23;5038178;58;1141338;-65
2022/08/04 00:57:03;;;;;;;7.35;4.95;;;;;;;24.17;53.43;100807.63;4980959;58;1138952;-66
2022/08/04 01:02:16;;;;;;;5.30;4.80;;;;;;;24.06;53.54;100813.09;5084214;57;1138990;-64
2022/08/04 01:07:26;;;;;;;8.20;4.65;;;;;;;23.94;53.80;100795.78;5117475;57;1139011;-64
2022/08/04 01:13:02;;;;;;;5.07;4.57;;;;;;;23.86;54.09;100804.02;5122288;57;1139058;-65
2022/08/04 01:18:13;;;;;;;11.93;5.40;;;;;;;23.82;54.08;100813.58;5150889;57;1139200;-64
2022/08/04 01:24:03;;;;;;;6.42;4.62;;;;;;;23.83;54.29;100809.30;5118104;56;1141067;-65
2022/08/04 01:29:14;;;;;;;4.62;4.22;;;;;;;23.82;54.28;100810.36;5152267;57;1136905;-66
2022/08/04 01:34:22;;;;;;;8.83;4.77;;;;;;;23.77;54.36;100808.77;5089918;57;1137371;-65
2022/08/04 01:39:41;;;;;;;6.35;4.95;;;;;;;23.67;54.58;100798.00;5102282;57;1137275;-64
2022/08/04 01:44:50;;;;;;;6.67;4.83;;;;;;;23.70;54.67;100810.57;5146364;57;1137202;-65
2022/08/04 01:50:03;;;;;;;5.78;5.17;;;;;;;23.62;54.85;100800.45;5146322;57;1137341;-64
2022/08/04 01:55:12;;;;;;;10.48;5.03;;;;;;;23.54;55.00;100804.63;5151223;57;1136940;-65
2022/08/04 02:00:28;;;;;;;5.05;4.60;;;;;;;23.42;55.30;100798.40;5155017;57;1138916;-64
2022/08/04 02:05:34;;;;;;;8.95;5.75;;;;;;;23.31;55.52;100797.59;5150765;57;1134786;-66
2022/08/04 02:10:55;;;;;;;5.85;5.25;;;;;;;23.22;55.76;100801.44;5055270;58;1135419;-63
2022/08/04 02:16:31;;;;;;;9.80;5.53;;;;;;;23.17;55.99;100799.86;5149736;57;1138897;-67
2022/08/04 02:21:38;;;;;;;16.87;5.62;;;;;;;23.12;56.09;100794.20;5055252;58;1138997;-65
2022/08/04 02:26:46;;;;;;;6.03;5.03;;;;;;;23.09;56.27;100794.58;5145066;57;1141084;-66
2022/08/04 02:31:59;;;;;;;11.75;5.72;;;;;;;23.10;56.52;100790.34;5136103;57;1139007;-65
2022/08/04 02:37:06;;;;;;;9.25;5.67;;;;;;;23.05;56.57;100790.63;5069814;57;1141473;-66
2022/08/04 02:42:13;;;;;;;7.78;5.40;;;;;;;22.96;56.69;100786.37;5127111;57;1139148;-64
2022/08/04 02:47:21;;;;;;;9.85;5.70;;;;;;;22.89;57.04;100786.32;5066970;58;1139317;-66
2022/08/04 02:52:29;;;;;;;12.70;5.58;;;;;;;22.83;57.22;100781.69;5104849;57;1139359;-64
2022/08/04 02:57:38;;;;;;;11.70;6.10;;;;;;;22.85;57.45;100775.59;5119343;57;1141726;-65
2022/08/04 03:02:48;;;;;;;14.28;6.08;;;;;;;22.80;57.51;100778.02;5119684;57;1141345;-66
2022/08/04 03:08:29;;;;;;;10.93;6.23;;;;;;;22.67;57.94;100777.85;5177644;56;1141498;-66
2022/08/04 03:14:03;;;;;;;6.80;5.47;;;;;;;22.67;57.94;100777.85;5211364;56;1141236;-65
2022/08/04 03:19:36;;;;;;;9.13;6.30;;;;;;;22.65;58.09;100783.95;5156242;56;1139014;-65
2022/08/04 03:25:17;;;;;;;10.93;6.43;;;;;;;22.57;58.29;100773.30;5085348;57;1136953;-65
2022/08/04 03:30:49;;;;;;;9.90;6.17;;;;;;;22.48;58.62;100783.34;5108292;57;1139057;-66
2022/08/04 03:36:47;;;;;;;11.28;5.37;;;;;;;22.46;58.89;100782.18;5109400;57;1134870;-66
2022/08/04 03:42:29;;;;;;;11.40;5.85;;;;;;;22.45;59.18;100780.54;5140567;57;1141217;-63
2022/08/04 03:48:10;;;;;;;12.37;6.92;;;;;;;22.41;59.39;100784.62;5140694;57;1141066;-63
2022/08/04 03:53:33;;;;;;;10.08;5.60;;;;;;;22.39;59.59;100789.37;5140706;57;1141292;-64
2022/08/04 03:59:18;;;;;;;7.00;6.05;;;;;;;22.29;59.74;100789.36;5140947;57;1141282;-64
2022/08/04 04:04:59;;;;;;;12.28;6.92;;;;;;;22.19;60.00;100788.28;5141594;57;1139264;-64
2022/08/04 04:10:39;;;;;;;19.07;8.05;;;;;;;22.19;60.46;100791.48;5151528;56;1139310;-64
2022/08/04 04:16:13;;;;;;;10.95;6.30;;;;;;;22.14;60.72;100796.63;5125894;56;1139075;-65
2022/08/04 04:21:42;;;;;;;21.80;6.03;;;;;;;22.16;60.91;100798.59;5157795;57;1141235;-63
2022/08/04 04:27:11;;;;;;;19.62;6.62;;;;;;;22.13;61.21;100801.17;5158726;57;1141288;-64
2022/08/04 04:32:48;;;;;;;13.43;7.22;;;;;;;22.14;61.33;100804.20;5162808;57;1141249;-63
2022/08/04 04:38:29;;;;;;;9.08;6.20;;;;;;;22.15;61.35;100805.87;4994746;57;1141240;-66
2022/08/04 04:44:07;;;;;;;16.48;7.65;;;;;;;22.23;61.53;100807.61;5158816;57;1139192;-63
2022/08/04 04:49:33;;;;;;;66.82;8.80;;;;;;;22.27;61.51;100805.70;5163246;57;1141411;-65
2022/08/04 04:55:04;;;;;;;8.83;6.05;;;;;;;22.30;61.84;100816.12;5156585;56;1139151;-64
2022/08/04 05:00:12;;;;;;;10.23;6.22;;;;;;;22.34;61.74;100814.69;5154472;56;1136858;-65
2022/08/04 05:05:27;;;;;;;9.93;6.70;;;;;;;22.39;61.89;100815.48;5142706;57;1139053;-66
2022/08/04 05:11:15;;;;;;;11.70;6.17;;;;;;;22.43;61.86;100814.09;5151829;56;1137000;-63
2022/08/04 05:16:24;;;;;;;11.53;5.90;;;;;;;22.54;61.79;100816.80;4996889;59;21175;-66
2022/08/04 05:21:53;;;;;;;10.63;5.95;;;;;;;22.66;61.53;100814.77;4983859;58;1137046;-64
2022/08/04 05:27:04;;;;;;;6.45;5.70;;;;;;;22.82;61.32;100811.54;4982913;58;1141126;-63
2022/08/04 05:32:14;;;;;;;10.58;5.60;;;;;;;23.05;61.04;100809.51;4897850;60;1139141;-62
2022/08/04 05:37:21;;;;;;;24.50;6.55;;;;;;;23.29;60.37;100808.25;4833395;61;1141137;-63
2022/08/04 05:42:28;;;;;;;9.30;5.68;;;;;;;23.52;60.13;100808.08;4986021;58;1141155;-65
2022/08/04 05:47:36;;;;;;;11.68;5.20;;;;;;;23.75;59.37;100806.77;4987839;58;1139225;-65
2022/08/04 05:52:43;;;;;;;11.00;6.05;;;;;;;23.99;58.88;100809.50;5107491;57;1141183;-65
2022/08/04 05:57:51;;;;;;;117.93;11.33;;;;;;;24.17;56.79;100814.38;5146028;57;1141155;-66
2022/08/04 06:02:59;;;;;;;10.13;5.03;;;;;;;24.40;57.67;100812.77;5196419;56;1145256;-66
2022/08/04 06:08:05;;;;;;;8.93;4.80;;;;;;;24.63;55.54;100815.95;5227575;56;1141170;-65
2022/08/04 06:13:13;;;;;;;15.63;4.65;;;;;;;24.81;55.04;100816.73;5196753;56;1139013;-66
2022/08/04 06:18:20;;;;;;;5.35;4.60;;;;;;;24.96;55.55;100817.94;5171728;56;1141209;-64
2022/08/04 06:23:30;;;;;;;9.43;4.92;;;;;;;25.22;54.53;100822.02;5151922;56;1139025;-66
2022/08/04 06:28:37;;;;;;;5.22;4.65;;;;;;;25.45;54.37;100820.27;5152670;56;1139135;-66
2022/08/04 06:33:43;;;;;;;9.70;4.70;;;;;;;25.72;53.95;100819.75;5156770;56;1139057;-65
2022/08/04 06:38:50;;;;;;;13.00;5.35;;;;;;;25.92;52.19;100816.49;5101385;57;1139139;-66
2022/08/04 06:44:00;;;;;;;7.17;4.47;;;;;;;26.11;52.34;100821.03;5133441;57;1141387;-66
2022/08/04 06:49:06;;;;;;;18.02;4.90;;;;;;;26.39;52.85;100818.56;5116250;57;1138976;-65
2022/08/04 06:54:12;;;;;;;7.60;4.85;;;;;;;26.68;51.18;100814.45;5086205;57;1141323;-63
2022/08/04 06:59:19;;;;;;;4.87;4.08;;;;;;;26.92;50.52;100813.14;5085078;57;1138969;-64
2022/08/04 07:04:25;;;;;;;5.08;3.83;;;;;;;27.13;48.91;100816.06;5098207;57;1139265;-66
2022/08/04 07:09:31;;;;;;;8.13;4.15;;;;;;;27.38;48.55;100809.80;5097530;57;1138987;-67
2022/08/04 07:14:40;;;;;;;16.23;4.05;;;;;;;27.62;47.39;100815.80;5072428;57;1138998;-66
2022/08/04 07:19:46;;;;;;;6.33;3.60;;;;;;;27.84;45.65;100810.23;5131958;57;1141093;-63
2022/08/04 07:24:57;;;;;;;7.75;3.95;;;;;;;28.09;45.24;100807.99;5146015;56;1139011;-66
2022/08/04 07:30:07;;;;;;;6.42;4.20;;;;;;;28.31;45.39;100810.56;5150682;57;1139233;-67
2022/08/04 07:35:15;;;;;;;4.73;4.13;;;;;;;28.55;45.12;100811.53;5090431;57;1137025;-67
2022/08/04 07:40:22;;;;;;;4.20;3.50;;;;;;;28.78;45.12;100807.52;5086261;57;1136949;-67
2022/08/04 07:45:29;;;;;;;7.12;4.00;;;;;;;29.04;43.55;100809.87;5059210;58;1137079;-66
2022/08/04 07:50:37;;;;;;;4.53;3.52;;;;;;;29.31;44.29;100798.57;5055998;58;1137085;-66
2022/08/04 07:55:44;;;;;;;3.30;3.00;;;;;;;29.50;42.28;100795.22;5054786;58;1136972;-65
2022/08/04 08:00:49;;;;;;;6.58;3.50;;;;;;;29.69;41.16;100792.14;5073768;57;1136991;-66
2022/08/04 08:05:55;;;;;;;9.58;3.37;;;;;;;29.93;39.44;100791.59;5158864;56;1137142;-65
2022/08/04 08:11:01;;;;;;;12.13;3.30;;;;;;;30.09;40.32;100792.78;5146176;56;1136888;-67
2022/08/04 08:16:10;;;;;;;7.92;2.95;;;;;;;30.33;39.12;100790.80;5148705;57;1138994;-67
2022/08/04 08:21:17;;;;;;;8.20;2.83;;;;;;;30.44;38.60;100787.20;5078133;57;1137257;-63
2022/08/04 08:26:23;;;;;;;2.60;2.40;;;;;;;30.62;38.63;100791.67;5135428;57;1136944;-64
2022/08/04 08:31:29;;;;;;;2.58;2.37;;;;;;;30.67;37.78;100783.59;5085754;57;1136904;-63
2022/08/04 08:36:49;;;;;;;4.05;2.70;;;;;;;30.72;37.18;100788.59;5108479;57;1137220;-62
2022/08/04 08:42:30;;;;;;;10.03;2.75;;;;;;;30.84;37.31;100788.55;5109826;57;1135072;-63
2022/08/04 08:47:58;;;;;;;5.25;2.33;;;;;;;30.95;36.49;100789.55;5100097;57;1140695;-66
2022/08/04 08:53:40;;;;;;;16.52;2.42;;;;;;;31.00;37.18;100791.02;5110868;57;1139162;-63
2022/08/04 08:58:59;;;;;;;4.13;2.20;;;;;;;31.12;35.92;100801.35;5071279;58;1141076;-65
2022/08/04 09:04:40;;;;;;;1.98;1.87;;;;;;;31.24;35.79;100795.27;5048092;58;1139160;-65
2022/08/04 09:10:19;;;;;;;5.78;2.37;;;;;;;31.32;34.97;100788.00;5140620;57;1139059;-63
2022/08/04 09:15:40;;;;;;;2.58;2.42;;;;;;;31.48;34.74;100785.80;5151036;57;1138943;-64
2022/08/04 09:20:57;;;;;;;;;;;;;;;31.62;35.60;100792.30;5105001;57;1136990;-63
2022/08/04 09:26:21;;;;;;;2.42;2.20;;;;;;;31.79;35.49;100791.20;4975421;57;974280;-64
2022/08/04 09:31:50;;;;;;;3.98;2.17;;;;;;;31.83;34.03;100786.06;4978154;57;1134844;-67
2022/08/04 09:37:03;;;;;;;2.50;2.30;;;;;;;31.96;33.96;100791.70;5023569;58;1136939;-64
2022/08/04 09:42:46;;;;;;;2.70;2.50;;;;;;;32.12;34.66;100790.81;4965520;57;1135030;-66
2022/08/04 09:48:07;;;;;;;4.12;2.52;;;;;;;32.24;35.43;100774.28;4986497;57;1138947;-66
2022/08/04 09:53:37;;;;;;;5.47;2.83;;;;;;;32.37;34.61;100776.11;5130736;56;1138952;-63
2022/08/04 09:58:51;;;;;;;3.22;2.77;;;;;;;32.43;34.05;100777.80;5146437;56;1138979;-66
2022/08/04 10:04:08;;;;;;;11.88;2.58;;;;;;;32.44;33.36;100784.11;5122044;57;1138525;-64
2022/08/04 10:09:36;;;;;;;5.70;3.00;;;;;;;32.41;32.64;100781.88;5121631;57;1141369;-66
2022/08/04 10:14:55;;;;;;;2.85;2.70;;;;;;;32.50;33.79;100773.52;5121728;57;1138999;-62
2022/08/04 10:20:26;;;;;;;3.22;2.52;;;;;;;32.72;33.62;100766.59;5125829;57;1139087;-63
2022/08/04 10:26:01;;;;;;;4.00;2.93;;;;;;;32.92;33.31;100776.95;5134265;57;1139084;-65
2022/08/04 10:31:11;;;;;;;3.47;2.55;;;;;;;32.87;32.77;100764.57;5145410;57;1137011;-64
2022/08/04 10:36:21;;;;;;;2.65;2.52;;;;;;;32.96;32.50;100763.85;5145933;56;1136983;-64
2022/08/04 10:41:32;;;;;;;4.62;2.77;;;;;;;33.08;32.69;100765.87;5151739;56;1136909;-65
2022/08/04 10:46:47;;;;;;;6.12;2.72;;;;;;;33.19;31.75;100765.39;5155075;56;1136935;-64
2022/08/04 10:52:06;;;;;;;4.08;3.70;;;;;;;33.23;30.95;100748.70;5155564;56;1136929;-66
2022/08/04 10:57:33;;;;;;;6.95;2.52;;;;;;;33.18;32.38;100754.14;4883466;60;1137152;-67
2022/08/04 11:03:07;;;;;;;2.67;2.47;;;;;;;33.45;32.20;100737.66;4995559;58;1138927;-65
2022/08/04 11:08:35;;;;;;;2.65;2.45;;;;;;;33.47;31.91;100737.64;4994423;59;1138999;-65
2022/08/04 11:14:09;;;;;;;5.80;2.83;;;;;;;33.49;31.96;100740.12;4993764;59;1139244;-64
2022/08/04 11:19:42;;;;;;;6.33;2.52;;;;;;;33.58;30.96;100730.33;4910650;60;1139199;-63
2022/08/04 11:25:13;;;;;;;2.22;2.12;;;;;;;33.69;31.34;100725.16;4904630;60;1139061;-66
2022/08/04 11:30:20;;;;;;;9.00;3.03;;;;;;;33.74;31.07;100733.43;5024268;58;1139402;-67
2022/08/04 11:35:39;;;;;;;2.60;2.40;;;;;;;33.79;30.68;100727.15;5031726;58;1138996;-64
2022/08/04 11:40:47;;;;;;;3.27;2.45;;;;;;;33.84;31.21;100723.06;4904837;59;1139023;-66
2022/08/04 11:46:03;;;;;;;2.87;2.67;;;;;;;34.01;32.01;100725.61;4902277;59;1139232;-66
2022/08/04 11:51:10;;;;;;;6.65;2.77;;;;;;;33.95;30.29;100724.75;4928400;58;1137191;-65
2022/08/04 11:56:17;;;;;;;2.67;2.52;;;;;;;34.00;30.95;100713.80;5241415;56;1136923;-67
2022/08/04 12:01:48;;;;;;;8.58;2.58;;;;;;;34.09;29.82;100723.15;5240316;56;1137150;-67
2022/08/04 12:07:07;;;;;;;5.47;2.73;;;;;;;34.11;29.89;100720.14;5232231;56;1136915;-67
2022/08/04 12:12:32;;;;;;;6.05;3.25;;;;;;;34.03;30.02;100720.67;5224785;56;1137123;-64
2022/08/04 12:18:15;;;;;;;6.70;2.98;;;;;;;33.88;31.08;100717.33;5241228;56;1134852;-65
2022/08/04 12:23:28;;;;;;;2.87;2.67;;;;;;;34.06;31.21;100711.36;5215409;56;1139122;-65
2022/08/04 12:28:40;;;;;;;3.35;3.02;;;;;;;34.24;30.69;100708.64;5177433;56;1138980;-66
2022/08/04 12:33:51;;;;;;;3.92;3.08;;;;;;;34.38;29.83;100713.92;5038767;57;1138997;-63
2022/08/04 12:39:18;;;;;;;3.50;3.30;;;;;;;34.47;31.60;100704.06;4979900;59;1139015;-65
2022/08/04 12:44:25;;;;;;;11.80;6.53;;;;;;;34.56;30.71;100697.47;4823068;60;1139052;-67
2022/08/04 12:49:34;;;;;;;7.97;4.75;;;;;;;34.62;30.59;100698.30;4793914;60;1141132;-66
2022/08/04 12:54:43;;;;;;;8.63;4.05;;;;;;;34.66;29.73;100694.74;4823714;60;1139129;-66
2022/08/04 12:59:49;;;;;;;4.92;3.52;;;;;;;34.69;30.46;100688.67;4823701;60;1139177;-67
2022/08/04 13:05:02;;;;;;;4.10;3.80;;;;;;;34.75;30.20;100684.02;4823608;61;1139054;-64
2022/08/04 13:10:15;;;;;;;5.50;3.45;;;;;;;34.58;29.82;100689.23;4865630;60;1139246;-65
2022/08/04 13:15:23;;;;;;;6.83;4.03;;;;;;;34.55;30.02;100684.28;5041519;58;1139206;-65
2022/08/04 13:20:37;;;;;;;9.80;4.47;;;;;;;34.64;31.01;100673.58;5045743;56;1139040;-66
2022/08/04 13:25:47;;;;;;;7.08;5.05;;;;;;;34.71;30.41;100665.88;5064214;57;1139023;-66
2022/08/04 13:30:59;;;;;;;5.22;3.75;;;;;;;34.68;30.15;100666.42;5102575;57;22055;-66
2022/08/04 13:36:08;;;;;;;4.75;4.35;;;;;;;34.64;29.70;100662.59;5046789;57;1134834;-64
2022/08/04 13:41:14;;;;;;;7.70;4.25;;;;;;;34.63;29.74;100661.49;5087844;57;1138971;-62
2022/08/04 13:46:26;;;;;;;4.05;3.77;;;;;;;34.69;31.25;100665.32;5063589;58;1139117;-66
2022/08/04 13:51:34;;;;;;;6.28;5.15;;;;;;;34.80;29.61;100664.81;5105347;57;1136277;-66
2022/08/04 13:56:44;;;;;;;12.40;5.00;;;;;;;34.80;29.73;100662.89;5121769;57;1137147;-68
2022/08/04 14:02:00;;;;;;;5.35;4.10;;;;;;;34.76;29.65;100653.52;5120127;57;1139139;-64
2022/08/04 14:07:15;;;;;;;18.62;4.75;;;;;;;34.77;29.75;100642.83;5120360;57;1137191;-66
2022/08/04 14:12:22;;;;;;;4.58;4.17;;;;;;;34.69;29.74;100639.77;5069685;57;1138966;-66
2022/08/04 14:17:28;;;;;;;5.95;4.65;;;;;;;34.66;30.05;100634.30;5078548;57;1136917;-66
2022/08/04 14:22:36;;;;;;;9.98;4.00;;;;;;;34.49;29.76;100638.69;5092644;57;1136906;-64
2022/08/04 14:27:51;;;;;;;5.42;4.20;;;;;;;34.62;30.79;100630.45;5043705;57;1137196;-67
2022/08/04 14:33:09;;;;;;;4.25;3.50;;;;;;;34.73;30.17;100633.45;5034942;58;1136946;-67
2022/08/04 14:38:15;;;;;;;5.20;4.72;;;;;;;34.76;29.93;100613.67;5111873;57;21240;-66
2022/08/04 14:43:20;;;;;;;4.60;3.98;;;;;;;34.64;29.73;100612.31;5040837;57;1134697;-64
2022/08/04 14:48:26;;;;;;;5.10;3.60;;;;;;;34.64;29.74;100617.81;5029193;57;1138966;-67
2022/08/04 14:53:32;;;;;;;4.08;3.67;;;;;;;34.63;29.85;100615.61;5041114;57;1139017;-65
2022/08/04 14:58:38;;;;;;;5.78;4.20;;;;;;;34.44;29.66;100618.63;5060452;57;1138975;-72
2022/08/04 15:03:46;;;;;;;3.40;3.17;;;;;;;34.44;29.76;100618.63;5016758;58;1139246;-67
2022/08/04 15:08:54;;;;;;;8.68;5.05;;;;;;;34.45;29.67;100614.79;5040037;57;1138949;-64
2022/08/04 15:14:00;;;;;;;15.03;5.05;;;;;;;34.48;30.31;100605.45;5049226;57;1139214;-70
2022/08/04 15:19:07;;;;;;;6.28;3.55;;;;;;;34.44;30.36;100607.64;5078964;57;1141292;-68
2022/08/04 15:24:14;;;;;;;7.05;5.28;;;;;;;34.38;29.87;100604.61;5174339;56;1139065;-70
2022/08/04 15:29:31;;;;;;;4.25;3.80;;;;;;;34.20;29.95;100611.46;5201744;56;1138991;-69
2022/08/04 15:34:51;;;;;;;10.40;4.17;;;;;;;34.17;30.42;100605.13;5153787;56;1139086;-68
2022/08/04 15:40:13;;;;;;;226.07;14.17;;;;;;;34.14;30.82;100608.42;5222226;56;1141125;-70
2022/08/04 15:45:23;;;;;;;;;;;;;;;34.13;30.51;100603.48;5235600;56;1145281;-72
2022/08/04 15:50:29;;;;;;;4.37;3.77;;;;;;;34.06;30.75;100600.73;5235002;56;976352;-74
2022/08/04 15:55:40;;;;;;;4.47;4.17;;;;;;;33.86;30.79;100602.34;5188494;56;1136914;-71
2022/08/04 16:00:53;;;;;;;4.78;3.33;;;;;;;33.66;30.93;100602.79;5215623;56;1138973;-68
2022/08/04 16:06:01;;;;;;;8.18;4.17;;;;;;;33.62;31.47;100593.44;5227305;56;1139289;-68
2022/08/04 16:11:06;;;;;;;4.97;3.70;;;;;;;33.66;31.16;100596.76;5205044;56;1139210;-69
2022/08/04 16:16:13;;;;;;;3.90;3.55;;;;;;;33.63;31.69;100593.17;5131232;56;1139253;-74
2022/08/04 16:21:24;;;;;;;6.08;3.60;;;;;;;33.57;31.14;100593.45;5172640;56;1139188;-68
2022/08/04 16:26:46;;;;;;;5.05;3.98;;;;;;;33.57;31.54;100591.53;5146046;56;1139327;-67
2022/08/04 16:32:14;;;;;;;5.80;3.98;;;;;;;33.51;31.23;100578.33;5085203;57;1138845;-70
2022/08/04 16:37:23;;;;;;;4.35;4.05;;;;;;;33.49;31.47;100581.89;5121866;57;1136874;-73
2022/08/04 16:42:32;;;;;;;3.83;3.42;;;;;;;33.30;31.37;100578.55;5121933;56;1137161;-71
2022/08/04 16:47:54;;;;;;;4.30;3.92;;;;;;;33.30;31.37;100578.55;5115782;56;1137108;-72
2022/08/04 16:53:01;;;;;;;14.38;3.52;;;;;;;33.26;31.84;100588.39;5114411;57;1137208;-70
2022/08/04 16:58:07;;;;;;;4.97;3.83;;;;;;;33.06;31.93;100585.78;5144098;56;1139007;-67
2022/08/04 17:03:13;;;;;;;7.90;4.15;;;;;;;32.91;32.23;100580.22;5147550;56;1136911;-73
2022/08/04 17:08:19;;;;;;;3.95;3.75;;;;;;;32.81;32.89;100581.53;5075378;57;1136922;-71
2022/08/04 17:13:31;;;;;;;15.40;4.03;;;;;;;32.73;33.07;100582.84;5095950;56;1136933;-68
2022/08/04 17:18:41;;;;;;;4.22;3.62;;;;;;;32.65;33.57;100577.83;5102486;57;1139043;-70
2022/08/04 17:23:54;;;;;;;10.05;4.50;;;;;;;32.56;33.62;100578.02;5142009;56;1135018;-67
2022/08/04 17:29:00;;;;;;;4.37;3.97;;;;;;;32.45;33.99;100574.94;5090519;57;1141063;-71
2022/08/04 17:34:15;;;;;;;8.60;4.33;;;;;;;32.34;34.36;100568.56;5136929;57;1138962;-70
2022/08/04 17:39:24;;;;;;;4.33;4.03;;;;;;;32.29;34.54;100579.45;5140282;56;1139030;-69
2022/08/04 17:44:39;;;;;;;10.58;4.65;;;;;;;32.25;34.79;100575.58;5140780;56;1139020;-69
2022/08/04 17:49:45;;;;;;;17.00;5.60;;;;;;;32.19;34.97;100578.52;5117592;56;1141010;-69
2022/08/04 17:55:05;;;;;;;10.60;4.15;;;;;;;32.04;35.25;100577.30;5112687;56;1141011;-71
2022/08/04 18:00:08;;;;;;;10.40;5.78;;;;;;;31.97;35.56;100578.58;5116758;56;1141244;-72
2022/08/04 18:05:18;;;;;;;25.17;8.88;;;;;;;31.87;35.96;100572.47;5081525;56;1141085;-71
2022/08/04 18:10:41;;;;;;;5.63;5.13;;;;;;;31.79;36.31;100577.02;5154042;56;1141103;-68
2022/08/04 18:15:47;;;;;;;15.58;7.58;;;;;;;31.69;36.51;100570.91;5156333;56;1139211;-66
2022/08/04 18:20:53;;;;;;;10.13;4.78;;;;;;;31.59;36.83;100580.89;5155561;56;1141321;-72
2022/08/04 18:25:59;;;;;;;4.17;3.87;;;;;;;31.50;37.06;100586.50;5156013;56;1141102;-71
2022/08/04 18:31:05;;;;;;;6.85;4.95;;;;;;;31.38;37.33;100580.63;5097560;57;1138971;-69
2022/08/04 18:36:11;;;;;;;7.90;5.00;;;;;;;31.22;37.48;100578.79;5109518;56;1139058;-69
2022/08/04 18:41:17;;;;;;;9.50;4.78;;;;;;;31.10;37.86;100586.28;5092034;56;1138962;-69
2022/08/04 18:46:24;;;;;;;7.78;4.55;;;;;;;31.01;38.08;100598.13;5086525;57;1138629;-69
2022/08/04 18:51:30;;;;;;;8.98;4.75;;;;;;;30.91;38.46;100590.34;5118033;56;1139277;-70
2022/08/04 18:56:36;;;;;;;16.65;5.12;;;;;;;30.76;38.78;100592.31;5108123;57;1138801;-68
2022/08/04 19:01:42;;;;;;;12.40;4.45;;;;;;;30.62;39.26;100595.92;5109803;57;1140957;-70
2022/08/04 19:06:48;;;;;;;8.48;4.60;;;;;;;30.42;39.62;100599.11;5098654;57;1141047;-73
2022/08/04 19:11:53;;;;;;;10.82;4.20;;;;;;;30.24;40.30;100604.83;5078496;57;1139221;-69
2022/08/04 19:16:59;;;;;;;10.32;4.30;;;;;;;30.12;40.48;100597.22;5071920;57;1141017;-70
2022/08/04 19:22:05;;;;;;;7.72;4.55;;;;;;;29.98;40.65;100604.05;5071742;57;1141020;-66
2022/08/04 19:27:11;;;;;;;20.80;4.42;;;;;;;29.86;40.96;100600.53;5062404;57;1138397;-70
2022/08/04 19:32:18;;;;;;;7.33;4.00;;;;;;;29.73;41.20;100602.48;5146542;56;1141116;-71
2022/08/04 19:37:24;;;;;;;12.30;4.15;;;;;;;29.62;41.34;100612.90;5097453;57;1138977;-69
2022/08/04 19:42:29;;;;;;;12.35;4.15;;;;;;;29.46;41.46;100604.11;5091565;57;1141089;-72
2022/08/04 19:47:35;;;;;;;12.28;4.20;;;;;;;29.34;41.58;100612.26;5155690;56;1141037;-68
2022/08/04 19:52:41;;;;;;;7.80;4.20;;;;;;;29.21;41.80;100608.44;5155387;56;1139219;-68
2022/08/04 19:57:46;;;;;;;8.75;4.30;;;;;;;29.14;42.08;100609.64;5155042;56;1136857;-70
2022/08/04 20:02:52;;;;;;;17.98;4.45;;;;;;;29.03;42.21;100599.04;5152113;56;1136837;-72
2022/08/04 20:07:58;;;;;;;11.95;5.28;;;;;;;28.94;42.27;100608.64;5150473;56;1138909;-72
2022/08/04 20:13:04;;;;;;;11.73;4.80;;;;;;;28.80;42.42;100608.06;5150439;56;1138976;-70
2022/08/04 20:18:10;;;;;;;12.73;3.67;;;;;;;28.67;42.94;100598.73;5150520;56;1139175;-69
2022/08/04 20:23:16;;;;;;;17.17;5.00;;;;;;;28.57;43.20;100610.18;5150987;56;1138973;-72
2022/08/04 20:28:21;;;;;;;9.45;3.65;;;;;;;28.45;43.33;100603.90;5185572;56;1139087;-69
2022/08/04 20:33:27;;;;;;;10.95;4.10;;;;;;;28.30;43.67;100598.91;5231961;56;1136911;-73
2022/08/04 20:38:33;;;;;;;13.30;4.17;;;;;;;28.23;43.76;100600.92;5172026;56;1139020;-71
2022/08/04 20:43:39;;;;;;;13.72;4.95;;;;;;;28.18;44.07;100604.83;5232092;56;1138988;-67
2022/08/04 20:48:44;;;;;;;10.72;4.55;;;;;;;28.12;44.26;100608.98;5231881;56;1139012;-70
2022/08/04 20:53:50;;;;;;;18.82;4.60;;;;;;;28.00;44.49;100607.06;5231884;56;1139066;-69
2022/08/04 20:58:56;;;;;;;7.90;4.12;;;;;;;27.85;44.70;100608.02;5232047;56;1138939;-68
2022/08/04 21:09:26;;;;;;;8.65;4.28;;;;;;;27.66;45.14;100613.17;5226756;56;1136941;-71
2022/08/04 21:14:33;;;;;;;10.23;4.35;;;;;;;27.52;45.32;100607.58;5226652;56;1134844;-68
2022/08/04 21:19:40;;;;;;;9.53;4.55;;;;;;;27.34;45.74;100612.52;5228269;56;1141095;-71
2022/08/04 21:24:46;;;;;;;13.53;4.60;;;;;;;27.21;45.80;100610.75;5227757;56;1139197;-71
2022/08/04 21:29:52;;;;;;;13.97;4.40;;;;;;;27.10;46.37;100611.50;5187605;56;1140986;-67
2022/08/04 21:34:59;;;;;;;11.28;4.80;;;;;;;26.98;46.35;100610.59;5143560;56;1141375;-70
2022/08/04 21:40:05;;;;;;;7.67;4.45;;;;;;;26.89;46.70;100602.38;5134122;57;1141025;-72
2022/08/04 21:45:11;;;;;;;8.50;4.72;;;;;;;26.79;46.94;100607.50;5133919;57;1139017;-69
2022/08/04 21:50:18;;;;;;;6.40;4.87;;;;;;;26.69;47.09;100601.23;5134023;57;1139072;-73
2022/08/04 21:55:24;;;;;;;10.68;4.95;;;;;;;26.57;47.33;100593.52;5103993;57;1139006;-70
2022/08/04 22:00:30;;;;;;;5.33;4.83;;;;;;;26.46;47.89;100595.57;5096371;57;1141066;-69
2022/08/04 22:05:37;;;;;;;7.78;4.65;;;;;;;26.34;47.88;100591.39;5128246;57;1139061;-72
2022/08/04 22:10:43;;;;;;;8.53;4.80;;;;;;;26.23;48.58;100599.69;5128495;57;1138955;-73
2022/08/04 22:15:49;;;;;;;6.87;4.60;;;;;;;26.17;48.63;100597.02;5128015;57;1139019;-67
2022/08/04 22:20:55;;;;;;;5.58;4.33;;;;;;;26.14;48.65;100595.56;5127924;57;1139031;-69
2022/08/04 22:26:01;;;;;;;11.53;4.78;;;;;;;26.06;48.72;100597.20;5049295;57;1139047;-71
2022/08/04 22:31:09;;;;;;;14.33;4.67;;;;;;;25.97;49.24;100599.87;5082471;57;1141104;-68
2022/08/04 22:36:16;;;;;;;6.50;5.70;;;;;;;25.89;49.40;100594.69;5094306;57;1141154;-68
2022/08/04 22:41:22;;;;;;;6.90;4.75;;;;;;;25.81;49.43;100597.67;5108560;56;1138930;-68
2022/08/04 22:46:29;;;;;;;16.30;5.15;;;;;;;25.73;50.10;100602.80;5109781;57;1138903;-67
2022/08/04 22:51:36;;;;;;;8.45;5.08;;;;;;;25.66;50.00;100604.72;5113090;56;1141127;-70
2022/08/04 22:56:42;;;;;;;11.65;5.50;;;;;;;25.56;50.28;100600.23;5114408;57;1138980;-72
2022/08/04 23:01:47;;;;;;;10.85;5.58;;;;;;;25.49;50.75;100598.09;5124872;56;1141080;-70
2022/08/04 23:06:54;;;;;;;12.85;5.72;;;;;;;25.39;50.87;100595.81;5151071;56;1141362;-71
2022/08/04 23:11:59;;;;;;;6.90;4.85;;;;;;;25.32;51.22;100592.31;5151055;56;1141055;-73
2022/08/04 23:17:05;;;;;;;7.12;5.08;;;;;;;25.25;51.51;100584.73;5151421;56;1139000;-69
2022/08/04 23:22:11;;;;;;;26.93;5.08;;;;;;;25.12;51.96;100581.55;5142416;56;1138916;-72
2022/08/04 23:27:18;;;;;;;9.15;5.28;;;;;;;25.03;52.32;100583.34;5151841;56;1140996;-70
2022/08/04 23:32:24;;;;;;;9.95;5.40;;;;;;;24.88;52.96;100572.20;5105329;57;1138887;-68
2022/08/04 23:37:29;;;;;;;17.27;5.47;;;;;;;24.75;53.50;100568.14;5107269;56;1139059;-71
2022/08/04 23:42:35;;;;;;;16.85;5.45;;;;;;;24.67;53.76;100572.95;5180277;56;1140616;-71
2022/08/04 23:47:41;;;;;;;11.10;5.58;;;;;;;24.54;54.20;100568.39;5174082;56;1141240;-72